createdAt,value
2022-10-26T00:00:34.265Z,1010.04
2022-10-26T00:01:35.334Z,1010.00
2022-10-26T00:02:34.142Z,1010.00
2022-10-26T00:03:34.261Z,1009.95
2022-10-26T00:04:35.119Z,1009.97
2022-10-26T00:05:34.365Z,1009.99
2022-10-26T00:06:34.592Z,1009.95
2022-10-26T00:07:34.761Z,1009.91
2022-10-26T00:08:34.328Z,1009.89
2022-10-26T00:09:34.047Z,1009.94
2022-10-26T00:10:35.232Z,1009.90
2022-10-26T00:11:34.573Z,1009.91
2022-10-26T00:12:34.140Z,1009.95
2022-10-26T00:13:35.151Z,1009.94
2022-10-26T00:14:34.893Z,1009.93
2022-10-26T00:15:35.002Z,1009.97
2022-10-26T00:16:34.448Z,1009.97
2022-10-26T00:17:35.874Z,1009.91
2022-10-26T00:18:35.728Z,1009.91
2022-10-26T00:19:34.129Z,1009.90
2022-10-26T00:20:34.016Z,1009.92
2022-10-26T00:21:34.091Z,1009.93
2022-10-26T00:22:34.793Z,1009.87
2022-10-26T00:23:38.901Z,1009.89
2022-10-26T00:24:35.478Z,1009.92
2022-10-26T00:25:37.283Z,1009.90
2022-10-26T00:26:43.436Z,1009.90
2022-10-26T00:27:34.558Z,1009.91
2022-10-26T00:28:34.526Z,1009.87
2022-10-26T00:29:34.366Z,1009.89
2022-10-26T00:30:34.602Z,1009.88
2022-10-26T00:31:34.099Z,1009.90
2022-10-26T00:33:40.545Z,1009.92
2022-10-26T00:34:34.047Z,1009.91
2022-10-26T00:35:46.039Z,1009.89
2022-10-26T00:36:39.411Z,1009.91
2022-10-26T00:37:34.815Z,1009.87
2022-10-26T00:38:35.844Z,1009.88
2022-10-26T00:39:37.724Z,1009.88
2022-10-26T00:40:41.131Z,1009.84
2022-10-26T00:41:37.608Z,1009.83
2022-10-26T00:42:41.709Z,1009.83
2022-10-26T00:43:37.299Z,1009.84
2022-10-26T00:44:37.680Z,1009.83
2022-10-26T00:45:35.691Z,1009.85
2022-10-26T00:46:33.886Z,1009.75
2022-10-26T00:47:36.118Z,1009.83
2022-10-26T00:48:34.249Z,1009.87
2022-10-26T00:49:33.795Z,1009.80
2022-10-26T00:50:35.342Z,1009.82
2022-10-26T00:51:46.714Z,1009.80
2022-10-26T00:52:33.862Z,1009.81
2022-10-26T00:53:34.626Z,1009.80
2022-10-26T00:54:39.988Z,1009.79
2022-10-26T00:55:40.831Z,1009.80
2022-10-26T00:56:39.145Z,1009.76
2022-10-26T00:57:39.447Z,1009.80
2022-10-26T00:58:44.877Z,1009.76
2022-10-26T01:00:46.158Z,1009.79
2022-10-26T01:01:45.988Z,1009.77
2022-10-26T01:02:46.209Z,1009.78
2022-10-26T01:03:45.826Z,1009.78
2022-10-26T01:04:45.690Z,1009.75
2022-10-26T01:05:45.678Z,1009.70
2022-10-26T01:06:45.751Z,1009.73
2022-10-26T01:07:45.860Z,1009.69
2022-10-26T01:08:45.692Z,1009.64
2022-10-26T01:09:45.587Z,1009.66
2022-10-26T01:10:45.651Z,1009.71
2022-10-26T01:11:45.591Z,1009.72
2022-10-26T01:12:45.612Z,1009.68
2022-10-26T01:13:45.529Z,1009.64
2022-10-26T01:14:45.587Z,1009.66
2022-10-26T01:15:45.517Z,1009.66
2022-10-26T01:16:45.517Z,1009.65
2022-10-26T01:17:45.639Z,1009.63
2022-10-26T01:18:45.606Z,1009.62
2022-10-26T01:19:45.469Z,1009.60
2022-10-26T01:20:45.572Z,1009.55
2022-10-26T01:21:45.522Z,1009.58
2022-10-26T01:22:45.523Z,1009.57
2022-10-26T01:23:45.454Z,1009.56
2022-10-26T01:24:45.449Z,1009.57
2022-10-26T01:25:45.488Z,1009.58
2022-10-26T01:26:45.722Z,1009.59
2022-10-26T01:27:45.401Z,1009.56
2022-10-26T01:28:45.412Z,1009.58
2022-10-26T01:29:45.382Z,1009.55
2022-10-26T01:30:45.373Z,1009.55
2022-10-26T01:31:45.305Z,1009.53
2022-10-26T01:32:45.338Z,1009.53
2022-10-26T01:33:45.285Z,1009.50
2022-10-26T01:34:45.265Z,1009.49
2022-10-26T01:35:45.310Z,1009.54
2022-10-26T01:36:45.267Z,1009.50
2022-10-26T01:37:45.368Z,1009.47
2022-10-26T01:38:45.225Z,1009.51
2022-10-26T01:39:45.282Z,1009.45
2022-10-26T01:40:46.079Z,1009.43
2022-10-26T01:41:45.266Z,1009.44
2022-10-26T01:42:45.192Z,1009.41
2022-10-26T01:43:45.168Z,1009.39
2022-10-26T01:44:45.123Z,1009.40
2022-10-26T01:45:45.267Z,1009.41
2022-10-26T01:46:45.149Z,1009.37
2022-10-26T01:47:45.085Z,1009.39
2022-10-26T01:48:45.117Z,1009.36
2022-10-26T01:49:45.151Z,1009.36
2022-10-26T01:50:45.062Z,1009.37
2022-10-26T01:51:45.811Z,1009.37
2022-10-26T01:52:45.077Z,1009.35
2022-10-26T01:53:45.054Z,1009.33
2022-10-26T01:54:45.042Z,1009.35
2022-10-26T01:55:45.022Z,1009.32
2022-10-26T01:56:45.071Z,1009.24
2022-10-26T01:57:44.946Z,1009.27
2022-10-26T01:58:44.999Z,1009.24
2022-10-26T01:59:44.967Z,1009.28
2022-10-26T02:00:45.122Z,1009.24
2022-10-26T02:01:45.079Z,1009.26
2022-10-26T02:02:44.956Z,1009.22
2022-10-26T02:03:45.065Z,1009.24
2022-10-26T02:04:44.963Z,1009.24
2022-10-26T02:05:45.055Z,1009.21
2022-10-26T02:06:44.841Z,1009.25
2022-10-26T02:07:44.884Z,1009.24
2022-10-26T02:08:44.804Z,1009.25
2022-10-26T02:09:44.793Z,1009.15
2022-10-26T02:10:44.792Z,1009.18
2022-10-26T02:11:44.794Z,1009.11
2022-10-26T02:12:44.780Z,1009.15
2022-10-26T02:13:44.805Z,1009.12
2022-10-26T02:14:44.680Z,1009.09
2022-10-26T02:15:44.775Z,1009.06
2022-10-26T02:16:44.868Z,1009.09
2022-10-26T02:17:44.868Z,1009.09
2022-10-26T02:18:44.755Z,1009.06
2022-10-26T02:19:44.683Z,1009.05
2022-10-26T02:20:44.634Z,1009.01
2022-10-26T02:21:44.748Z,1009.00
2022-10-26T02:22:44.683Z,1009.01
2022-10-26T02:23:44.609Z,1008.98
2022-10-26T02:24:44.664Z,1009.01
2022-10-26T02:25:44.604Z,1009.03
2022-10-26T02:26:44.579Z,1009.00
2022-10-26T02:27:44.602Z,1009.02
2022-10-26T02:28:44.538Z,1009.01
2022-10-26T02:29:44.567Z,1009.02
2022-10-26T02:30:44.495Z,1009.02
2022-10-26T02:31:44.479Z,1008.99
2022-10-26T02:32:44.528Z,1008.94
2022-10-26T02:33:44.577Z,1008.96
2022-10-26T02:34:44.460Z,1008.94
2022-10-26T02:35:44.666Z,1008.96
2022-10-26T02:36:45.787Z,1008.94
2022-10-26T02:37:45.089Z,1008.94
2022-10-26T02:38:44.676Z,1008.92
2022-10-26T02:39:44.489Z,1008.90
2022-10-26T02:40:44.486Z,1008.87
2022-10-26T02:41:44.528Z,1008.89
2022-10-26T02:42:44.366Z,1008.87
2022-10-26T02:43:44.410Z,1008.87
2022-10-26T02:44:44.335Z,1008.84
2022-10-26T02:45:44.339Z,1008.84
2022-10-26T02:46:44.300Z,1008.83
2022-10-26T02:47:44.292Z,1008.82
2022-10-26T02:48:44.334Z,1008.79
2022-10-26T02:49:44.551Z,1008.79
2022-10-26T02:50:44.373Z,1008.78
2022-10-26T02:51:44.483Z,1008.86
2022-10-26T02:52:44.238Z,1008.79
2022-10-26T02:53:44.237Z,1008.79
2022-10-26T02:54:44.205Z,1008.82
2022-10-26T02:55:44.213Z,1008.79
2022-10-26T02:56:44.139Z,1008.79
2022-10-26T02:57:44.477Z,1008.83
2022-10-26T02:58:44.210Z,1008.81
2022-10-26T02:59:44.184Z,1008.82
2022-10-26T03:00:44.183Z,1008.76
2022-10-26T03:01:44.211Z,1008.82
2022-10-26T03:02:47.560Z,1008.77
2022-10-26T03:03:44.153Z,1008.73
2022-10-26T03:04:44.048Z,1008.76
2022-10-26T03:05:44.079Z,1008.74
2022-10-26T03:06:44.024Z,1008.71
2022-10-26T03:07:44.026Z,1008.74
2022-10-26T03:08:43.985Z,1008.72
2022-10-26T03:09:44.013Z,1008.72
2022-10-26T03:10:43.995Z,1008.69
2022-10-26T03:11:43.969Z,1008.71
2022-10-26T03:12:43.962Z,1008.73
2022-10-26T03:13:43.960Z,1008.71
2022-10-26T03:14:44.072Z,1008.72
2022-10-26T03:15:44.053Z,1008.69
2022-10-26T03:16:43.992Z,1008.72
2022-10-26T03:17:43.895Z,1008.71
2022-10-26T03:18:43.854Z,1008.70
2022-10-26T03:19:43.847Z,1008.66
2022-10-26T03:20:43.868Z,1008.65
2022-10-26T03:21:43.919Z,1008.65
2022-10-26T03:22:43.829Z,1008.68
2022-10-26T03:23:43.854Z,1008.69
2022-10-26T03:24:43.786Z,1008.68
2022-10-26T03:25:43.970Z,1008.72
2022-10-26T03:26:44.059Z,1008.74
2022-10-26T03:27:43.746Z,1008.71
2022-10-26T03:28:43.735Z,1008.70
2022-10-26T03:29:43.795Z,1008.70
2022-10-26T03:30:43.777Z,1008.73
2022-10-26T03:31:43.704Z,1008.71
2022-10-26T03:32:43.764Z,1008.74
2022-10-26T03:33:43.726Z,1008.74
2022-10-26T03:34:44.755Z,1008.73
2022-10-26T03:35:43.775Z,1008.69
2022-10-26T03:36:43.745Z,1008.71
2022-10-26T03:37:43.623Z,1008.71
2022-10-26T03:38:43.673Z,1008.64
2022-10-26T03:39:43.623Z,1008.58
2022-10-26T03:40:43.674Z,1008.62
2022-10-26T03:41:43.656Z,1008.63
2022-10-26T03:42:43.573Z,1008.59
2022-10-26T03:43:43.594Z,1008.58
2022-10-26T03:44:43.621Z,1008.57
2022-10-26T03:45:43.526Z,1008.56
2022-10-26T03:46:43.623Z,1008.58
2022-10-26T03:47:43.506Z,1008.58
2022-10-26T03:48:43.506Z,1008.53
2022-10-26T03:49:43.516Z,1008.61
2022-10-26T03:50:43.433Z,1008.62
2022-10-26T03:51:43.464Z,1008.61
2022-10-26T03:52:43.478Z,1008.59
2022-10-26T03:53:43.495Z,1008.58
2022-10-26T03:54:43.415Z,1008.60
2022-10-26T03:55:43.436Z,1008.59
2022-10-26T03:56:43.411Z,1008.63
2022-10-26T03:57:43.364Z,1008.58
2022-10-26T03:58:43.407Z,1008.59
2022-10-26T03:59:43.656Z,1008.64
2022-10-26T04:00:43.534Z,1008.63
2022-10-26T04:01:43.701Z,1008.65
2022-10-26T04:02:43.521Z,1008.65
2022-10-26T04:03:43.603Z,1008.62
2022-10-26T04:04:45.078Z,1008.63
2022-10-26T04:05:44.390Z,1008.60
2022-10-26T04:06:47.714Z,1008.59
2022-10-26T04:07:46.115Z,1008.57
2022-10-26T04:08:43.309Z,1008.62
2022-10-26T04:09:43.217Z,1008.56
2022-10-26T04:10:43.261Z,1008.56
2022-10-26T04:11:43.265Z,1008.56
2022-10-26T04:12:43.188Z,1008.57
2022-10-26T04:13:43.207Z,1008.58
2022-10-26T04:14:43.241Z,1008.57
2022-10-26T04:15:43.158Z,1008.53
2022-10-26T04:16:43.172Z,1008.54
2022-10-26T04:17:43.130Z,1008.55
2022-10-26T04:18:43.149Z,1008.56
2022-10-26T04:19:43.188Z,1008.58
2022-10-26T04:20:43.300Z,1008.56
2022-10-26T04:21:43.262Z,1008.53
2022-10-26T04:22:43.127Z,1008.56
2022-10-26T04:23:43.068Z,1008.52
2022-10-26T04:24:43.202Z,1008.56
2022-10-26T04:25:43.034Z,1008.54
2022-10-26T04:26:42.968Z,1008.52
2022-10-26T04:27:43.099Z,1008.50
2022-10-26T04:28:43.079Z,1008.48
2022-10-26T04:29:43.014Z,1008.51
2022-10-26T04:30:42.959Z,1008.46
2022-10-26T04:32:42.935Z,1008.50
2022-10-26T04:33:42.990Z,1008.52
2022-10-26T04:34:43.087Z,1008.48
2022-10-26T04:35:43.074Z,1008.50
2022-10-26T04:36:43.034Z,1008.46
2022-10-26T04:37:42.842Z,1008.47
2022-10-26T04:38:42.916Z,1008.47
2022-10-26T04:39:42.815Z,1008.49
2022-10-26T04:40:42.936Z,1008.44
2022-10-26T04:41:43.039Z,1008.45
2022-10-26T04:42:42.876Z,1008.47
2022-10-26T04:43:42.736Z,1008.49
2022-10-26T04:44:42.826Z,1008.44
2022-10-26T04:45:42.741Z,1008.49
2022-10-26T04:46:42.734Z,1008.44
2022-10-26T04:47:42.665Z,1008.46
2022-10-26T04:48:42.753Z,1008.43
2022-10-26T04:49:42.758Z,1008.47
2022-10-26T04:50:42.899Z,1008.51
2022-10-26T04:51:42.779Z,1008.46
2022-10-26T04:52:43.015Z,1008.47
2022-10-26T04:53:43.990Z,1008.47
2022-10-26T04:54:42.819Z,1008.46
2022-10-26T04:55:42.622Z,1008.49
2022-10-26T04:56:42.663Z,1008.49
2022-10-26T04:57:42.559Z,1008.48
2022-10-26T04:58:42.725Z,1008.49
2022-10-26T04:59:42.804Z,1008.47
2022-10-26T05:00:44.206Z,1008.49
2022-10-26T05:01:42.837Z,1008.50
2022-10-26T05:02:42.705Z,1008.50
2022-10-26T05:03:42.560Z,1008.49
2022-10-26T05:04:42.696Z,1008.49
2022-10-26T05:05:42.622Z,1008.50
2022-10-26T05:06:42.580Z,1008.52
2022-10-26T05:07:42.659Z,1008.52
2022-10-26T05:08:42.677Z,1008.51
2022-10-26T05:09:42.564Z,1008.51
2022-10-26T05:10:42.468Z,1008.52
2022-10-26T05:11:42.480Z,1008.53
2022-10-26T05:12:42.432Z,1008.50
2022-10-26T05:13:42.514Z,1008.48
2022-10-26T05:14:42.554Z,1008.50
2022-10-26T05:15:42.661Z,1008.49
2022-10-26T05:16:42.534Z,1008.52
2022-10-26T05:17:42.469Z,1008.49
2022-10-26T05:18:42.426Z,1008.52
2022-10-26T05:19:42.599Z,1008.53
2022-10-26T05:20:42.476Z,1008.52
2022-10-26T05:22:42.398Z,1008.54
2022-10-26T05:23:42.489Z,1008.51
2022-10-26T05:24:42.620Z,1008.50
2022-10-26T05:25:42.384Z,1008.49
2022-10-26T05:26:42.643Z,1008.50
2022-10-26T05:27:42.217Z,1008.52
2022-10-26T05:28:42.345Z,1008.51
2022-10-26T05:29:42.562Z,1008.55
2022-10-26T05:30:42.471Z,1008.54
2022-10-26T05:31:42.206Z,1008.55
2022-10-26T05:32:42.235Z,1008.56
2022-10-26T05:33:42.553Z,1008.51
2022-10-26T05:34:43.853Z,1008.52
2022-10-26T05:35:43.860Z,1008.53
2022-10-26T05:36:42.712Z,1008.52
2022-10-26T05:37:43.460Z,1008.51
2022-10-26T05:38:42.676Z,1008.47
2022-10-26T05:39:42.222Z,1008.53
2022-10-26T05:40:42.895Z,1008.53
2022-10-26T05:41:42.331Z,1008.55
2022-10-26T05:42:43.867Z,1008.59
2022-10-26T05:43:42.448Z,1008.59
2022-10-26T05:44:42.125Z,1008.61
2022-10-26T05:45:42.785Z,1008.57
2022-10-26T05:46:42.704Z,1008.60
2022-10-26T05:47:42.277Z,1008.61
2022-10-26T05:48:43.027Z,1008.65
2022-10-26T05:49:42.456Z,1008.64
2022-10-26T05:50:46.278Z,1008.65
2022-10-26T05:51:44.690Z,1008.65
2022-10-26T05:52:42.163Z,1008.66
2022-10-26T05:53:45.468Z,1008.66
2022-10-26T05:54:46.747Z,1008.67
2022-10-26T05:55:42.982Z,1008.66
2022-10-26T05:56:44.152Z,1008.67
2022-10-26T05:57:46.242Z,1008.66
2022-10-26T05:58:44.156Z,1008.71
2022-10-26T05:59:43.142Z,1008.70
2022-10-26T06:00:44.376Z,1008.74
2022-10-26T06:01:44.167Z,1008.70
2022-10-26T06:02:42.522Z,1008.69
2022-10-26T06:03:45.578Z,1008.68
2022-10-26T06:04:43.910Z,1008.70
2022-10-26T06:05:43.566Z,1008.68
2022-10-26T06:06:45.024Z,1008.73
2022-10-26T06:07:44.245Z,1008.76
2022-10-26T06:08:54.563Z,1008.72
2022-10-26T06:17:15.912Z,1008.78
2022-10-26T06:17:54.001Z,1008.76
2022-10-26T06:18:56.154Z,1008.79
2022-10-26T06:19:54.356Z,1008.80
2022-10-26T06:20:51.526Z,1008.78
2022-10-26T06:21:55.304Z,1008.80
2022-10-26T06:23:02.550Z,1008.81
2022-10-26T06:24:06.367Z,1008.81
2022-10-26T06:24:51.832Z,1008.76
2022-10-26T06:26:01.245Z,1008.74
2022-10-26T06:26:57.728Z,1008.77
2022-10-26T06:27:59.225Z,1008.76
2022-10-26T06:28:55.712Z,1008.75
2022-10-26T06:29:57.155Z,1008.78
2022-10-26T06:30:52.105Z,1008.79
2022-10-26T06:31:55.360Z,1008.75
2022-10-26T06:33:01.373Z,1008.73
2022-10-26T06:33:51.385Z,1008.76
2022-10-26T06:34:50.247Z,1008.76
2022-10-26T06:35:50.140Z,1008.73
2022-10-26T06:36:50.134Z,1008.75
2022-10-26T06:37:50.320Z,1008.69
2022-10-26T06:38:50.295Z,1008.73
2022-10-26T06:39:52.663Z,1008.74
2022-10-26T06:40:50.029Z,1008.69
2022-10-26T06:41:50.086Z,1008.70
2022-10-26T06:42:49.973Z,1008.72
2022-10-26T06:43:49.989Z,1008.71
2022-10-26T06:44:49.998Z,1008.72
2022-10-26T07:22:00.003Z,1008.95
2022-10-26T07:22:59.891Z,1008.93
2022-10-26T07:23:59.287Z,1008.92
2022-10-26T07:25:03.049Z,1008.94
2022-10-26T07:25:58.965Z,1008.90
2022-10-26T07:26:59.215Z,1008.89
2022-10-26T07:27:59.488Z,1008.96
2022-10-26T07:28:59.045Z,1008.93
2022-10-26T07:30:01.042Z,1008.94
2022-10-26T07:30:59.532Z,1008.90
2022-10-26T07:31:59.098Z,1008.91
2022-10-26T07:32:59.136Z,1008.93
2022-10-26T07:33:59.166Z,1008.92
2022-10-26T07:34:58.933Z,1008.90
2022-10-26T07:35:59.308Z,1008.93
2022-10-26T07:36:59.216Z,1008.93
2022-10-26T07:37:59.225Z,1008.95
2022-10-26T07:38:59.080Z,1008.95
2022-10-26T07:40:02.522Z,1008.98
2022-10-26T07:40:59.770Z,1008.95
2022-10-26T07:41:58.999Z,1009.01
2022-10-26T07:42:59.024Z,1008.94
2022-10-26T07:43:58.786Z,1008.94
2022-10-26T07:44:58.875Z,1008.97
2022-10-26T07:45:58.692Z,1008.95
2022-10-26T07:46:58.681Z,1009.00
2022-10-26T07:47:58.708Z,1008.97
2022-10-26T07:48:58.809Z,1009.01
2022-10-26T07:49:58.877Z,1009.07
2022-10-26T07:50:58.671Z,1009.04
2022-10-26T07:51:58.969Z,1009.03
2022-10-26T07:52:58.819Z,1009.02
2022-10-26T07:53:58.677Z,1009.07
2022-10-26T07:54:58.811Z,1009.04
2022-10-26T07:55:58.803Z,1009.02
2022-10-26T07:56:58.669Z,1009.05
2022-10-26T07:57:58.945Z,1009.05
2022-10-26T07:58:58.650Z,1009.06
2022-10-26T07:59:59.758Z,1009.01
2022-10-26T08:00:59.624Z,1009.04
2022-10-26T08:01:58.748Z,1009.01
2022-10-26T08:02:59.051Z,1009.01
2022-10-26T08:03:58.545Z,1009.02
2022-10-26T08:04:58.688Z,1009.01
2022-10-26T08:05:58.780Z,1009.01
2022-10-26T08:06:58.919Z,1008.99
2022-10-26T08:07:58.731Z,1009.06
2022-10-26T08:08:58.620Z,1009.02
2022-10-26T08:09:58.537Z,1008.97
2022-10-26T08:10:58.704Z,1008.98
2022-10-26T08:11:58.546Z,1009.04
2022-10-26T08:12:58.327Z,1009.03
2022-10-26T08:13:58.432Z,1009.02
2022-10-26T08:14:58.641Z,1009.02
2022-10-26T08:15:58.523Z,1009.02
2022-10-26T08:16:58.457Z,1009.04
2022-10-26T08:17:58.742Z,1009.06
2022-10-26T08:18:58.752Z,1009.01
2022-10-26T08:19:59.242Z,1009.01
2022-10-26T08:21:05.121Z,1008.98
2022-10-26T08:21:59.427Z,1008.97
2022-10-26T08:22:58.370Z,1009.00
2022-10-26T08:23:59.001Z,1008.91
2022-10-26T08:24:58.340Z,1008.88
2022-10-26T08:25:58.366Z,1008.91
2022-10-26T08:26:58.544Z,1008.85
2022-10-26T08:27:58.357Z,1008.90
2022-10-26T08:28:58.543Z,1008.88
2022-10-26T08:29:58.251Z,1008.87
2022-10-26T08:30:58.283Z,1008.89
2022-10-26T08:31:58.082Z,1008.90
2022-10-26T08:32:58.275Z,1008.87
2022-10-26T08:33:58.197Z,1008.89
2022-10-26T08:34:58.118Z,1008.92
2022-10-26T08:35:58.329Z,1008.90
2022-10-26T08:36:58.152Z,1008.87
2022-10-26T08:37:58.277Z,1008.87
2022-10-26T08:40:00.631Z,1008.92
2022-10-26T08:40:59.119Z,1008.86
2022-10-26T08:41:57.980Z,1008.85
2022-10-26T08:42:58.145Z,1008.84
2022-10-26T08:43:58.126Z,1008.85
2022-10-26T08:44:58.010Z,1008.86
2022-10-26T08:45:58.032Z,1008.83
2022-10-26T08:46:57.991Z,1008.79
2022-10-26T08:47:57.993Z,1008.79
2022-10-26T08:48:57.854Z,1008.82
2022-10-26T08:49:58.369Z,1008.78
2022-10-26T08:50:57.859Z,1008.79
2022-10-26T08:51:57.845Z,1008.80
2022-10-26T08:52:57.945Z,1008.75
2022-10-26T08:53:57.864Z,1008.78
2022-10-26T08:54:57.851Z,1008.79
2022-10-26T08:55:57.780Z,1008.83
2022-10-26T08:56:57.749Z,1008.79
2022-10-26T08:57:57.743Z,1008.76
2022-10-26T08:58:57.771Z,1008.68
2022-10-26T08:59:57.688Z,1008.72
2022-10-26T09:00:57.677Z,1008.72
2022-10-26T09:01:58.137Z,1008.60
2022-10-26T09:02:57.694Z,1008.59
2022-10-26T09:03:57.802Z,1008.60
2022-10-26T09:04:57.860Z,1008.56
2022-10-26T09:05:57.585Z,1008.59
2022-10-26T09:06:57.642Z,1008.61
2022-10-26T09:07:57.620Z,1008.57
2022-10-26T09:08:57.597Z,1008.58
2022-10-26T09:09:57.641Z,1008.60
2022-10-26T09:10:57.533Z,1008.60
2022-10-26T09:11:57.516Z,1008.64
2022-10-26T09:12:57.548Z,1008.63
2022-10-26T09:13:59.751Z,1008.64
2022-10-26T09:14:57.665Z,1008.69
2022-10-26T09:15:57.636Z,1008.70
2022-10-26T09:16:57.564Z,1008.73
2022-10-26T09:17:57.849Z,1008.73
2022-10-26T09:18:59.018Z,1008.79
2022-10-26T09:19:57.464Z,1008.81
2022-10-26T09:20:57.369Z,1008.87
2022-10-26T09:21:57.480Z,1008.93
2022-10-26T09:22:57.442Z,1008.94
2022-10-26T09:23:57.415Z,1008.99
2022-10-26T09:24:57.402Z,1009.00
2022-10-26T09:25:57.397Z,1009.04
2022-10-26T09:26:57.438Z,1009.08
2022-10-26T09:27:57.486Z,1009.10
2022-10-26T09:28:57.282Z,1009.17
2022-10-26T09:29:57.340Z,1009.12
2022-10-26T09:30:57.556Z,1009.12
2022-10-26T09:31:57.331Z,1009.15
2022-10-26T09:32:57.243Z,1009.13
2022-10-26T09:33:57.241Z,1009.12
2022-10-26T09:34:57.371Z,1009.08
2022-10-26T09:35:57.224Z,1009.07
2022-10-26T09:36:57.369Z,1009.06
2022-10-26T09:37:57.365Z,1009.09
2022-10-26T09:38:57.162Z,1009.04
2022-10-26T09:39:57.502Z,1009.03
2022-10-26T09:40:57.119Z,1009.10
2022-10-26T09:41:57.210Z,1009.11
2022-10-26T09:42:57.172Z,1009.12
2022-10-26T09:43:57.123Z,1009.15
2022-10-26T09:44:57.095Z,1009.13
2022-10-26T09:45:57.060Z,1009.17
2022-10-26T09:46:57.049Z,1009.12
2022-10-26T09:47:57.124Z,1009.21
2022-10-26T09:48:57.041Z,1009.21
2022-10-26T09:49:57.095Z,1009.24
2022-10-26T09:51:01.875Z,1009.20
2022-10-26T09:51:58.127Z,1009.20
2022-10-26T09:52:57.045Z,1009.25
2022-10-26T09:53:57.073Z,1009.27
2022-10-26T09:54:57.279Z,1009.24
2022-10-26T09:55:57.030Z,1009.27
2022-10-26T09:56:56.977Z,1009.29
2022-10-26T09:57:57.007Z,1009.26
2022-10-26T09:58:57.010Z,1009.26
2022-10-26T09:59:56.972Z,1009.27
2022-10-26T10:00:57.037Z,1009.32
2022-10-26T10:01:56.878Z,1009.25
2022-10-26T10:02:56.922Z,1009.27
2022-10-26T10:03:56.938Z,1009.26
2022-10-26T10:04:56.831Z,1009.27
2022-10-26T10:05:56.863Z,1009.29
2022-10-26T10:06:57.035Z,1009.29
2022-10-26T10:07:56.892Z,1009.35
2022-10-26T10:08:57.450Z,1009.38
2022-10-26T10:09:56.836Z,1009.38
2022-10-26T10:10:56.735Z,1009.44
2022-10-26T10:11:56.831Z,1009.52
2022-10-26T10:12:56.747Z,1009.49
2022-10-26T10:13:56.756Z,1009.48
2022-10-26T10:14:56.689Z,1009.47
2022-10-26T10:15:56.673Z,1009.50
2022-10-26T10:16:56.632Z,1009.50
2022-10-26T10:17:56.920Z,1009.53
2022-10-26T10:18:56.702Z,1009.52
2022-10-26T10:19:56.679Z,1009.54
2022-10-26T10:20:56.607Z,1009.53
2022-10-26T10:21:56.672Z,1009.55
2022-10-26T10:22:56.599Z,1009.55
2022-10-26T10:23:56.689Z,1009.59
2022-10-26T10:24:56.579Z,1009.58
2022-10-26T10:25:56.635Z,1009.59
2022-10-26T10:26:56.619Z,1009.59
2022-10-26T10:27:56.511Z,1009.55
2022-10-26T10:28:56.637Z,1009.57
2022-10-26T10:29:59.889Z,1009.60
2022-10-26T10:30:57.533Z,1009.60
2022-10-26T10:31:56.548Z,1009.66
2022-10-26T10:32:56.513Z,1009.67
2022-10-26T10:33:56.465Z,1009.66
2022-10-26T10:34:56.499Z,1009.66
2022-10-26T10:35:56.460Z,1009.68
2022-10-26T10:36:56.419Z,1009.71
2022-10-26T10:37:56.482Z,1009.66
2022-10-26T10:38:56.376Z,1009.66
2022-10-26T10:39:56.429Z,1009.65
2022-10-26T10:40:56.459Z,1009.63
2022-10-26T10:41:56.415Z,1009.68
2022-10-26T10:42:56.424Z,1009.64
2022-10-26T10:43:56.335Z,1009.72
2022-10-26T10:44:56.348Z,1009.73
2022-10-26T10:45:59.402Z,1009.75
2022-10-26T10:46:56.295Z,1009.67
2022-10-26T10:47:56.340Z,1009.69
2022-10-26T10:48:56.275Z,1009.73
2022-10-26T10:49:56.396Z,1009.75
2022-10-26T10:50:56.219Z,1009.73
2022-10-26T10:51:56.354Z,1009.71
2022-10-26T10:52:56.414Z,1009.73
2022-10-26T10:53:56.259Z,1009.74
2022-10-26T10:54:56.360Z,1009.70
2022-10-26T10:55:56.300Z,1009.74
2022-10-26T10:56:56.138Z,1009.73
2022-10-26T10:57:56.246Z,1009.70
2022-10-26T10:58:56.253Z,1009.69
2022-10-26T10:59:56.167Z,1009.70
2022-10-26T11:00:56.212Z,1009.69
2022-10-26T11:01:56.307Z,1009.67
2022-10-26T11:02:56.145Z,1009.65
2022-10-26T11:03:56.077Z,1009.68
2022-10-26T11:04:56.065Z,1009.64
2022-10-26T11:05:56.071Z,1009.61
2022-10-26T11:06:56.108Z,1009.64
2022-10-26T11:07:56.307Z,1009.63
2022-10-26T11:08:56.004Z,1009.66
2022-10-26T11:09:56.065Z,1009.65
2022-10-26T11:10:56.132Z,1009.68
2022-10-26T11:11:56.055Z,1009.69
2022-10-26T11:12:56.016Z,1009.70
2022-10-26T11:13:55.955Z,1009.71
2022-10-26T11:14:55.996Z,1009.68
2022-10-26T11:15:56.007Z,1009.70
2022-10-26T11:16:55.903Z,1009.72
2022-10-26T11:17:56.707Z,1009.76
2022-10-26T11:18:55.853Z,1009.71
2022-10-26T11:19:55.906Z,1009.68
2022-10-26T11:20:55.866Z,1009.67
2022-10-26T11:21:56.126Z,1009.66
2022-10-26T11:22:59.431Z,1009.71
2022-10-26T11:24:30.199Z,1009.75
2022-10-26T11:25:30.073Z,1009.69
2022-10-26T11:26:29.963Z,1009.69
2022-10-26T11:27:30.139Z,1009.62
2022-10-26T11:28:29.897Z,1009.65
2022-10-26T11:29:31.759Z,1009.63
2022-10-26T11:30:30.117Z,1009.64
2022-10-26T11:31:29.730Z,1009.57
2022-10-26T11:32:29.857Z,1009.58
2022-10-26T11:33:32.875Z,1009.59
2022-10-26T11:34:29.998Z,1009.59
2022-10-26T11:35:29.926Z,1009.60
2022-10-26T11:36:30.169Z,1009.64
2022-10-26T11:37:29.790Z,1009.59
2022-10-26T11:38:39.254Z,1009.62
2022-10-26T11:39:30.821Z,1009.66
2022-10-26T11:40:29.682Z,1009.61
2022-10-26T11:41:29.771Z,1009.61
2022-10-26T11:42:29.651Z,1009.66
2022-10-26T11:43:29.694Z,1009.62
2022-10-26T11:44:29.708Z,1009.64
2022-10-26T11:45:29.723Z,1009.64
2022-10-26T11:46:29.527Z,1009.65
2022-10-26T11:47:29.742Z,1009.62
2022-10-26T11:48:29.523Z,1009.58
2022-10-26T11:49:29.532Z,1009.55
2022-10-26T11:50:29.536Z,1009.56
2022-10-26T11:51:29.509Z,1009.58
2022-10-26T11:52:29.481Z,1009.61
2022-10-26T11:53:29.568Z,1009.61
2022-10-26T11:54:29.421Z,1009.62
2022-10-26T11:55:29.450Z,1009.61
2022-10-26T11:56:29.403Z,1009.60
2022-10-26T11:57:29.412Z,1009.61
2022-10-26T11:58:29.572Z,1009.67
2022-10-26T11:59:33.083Z,1009.66
2022-10-26T12:00:29.340Z,1009.71
2022-10-26T12:01:29.365Z,1009.71
2022-10-26T12:02:29.369Z,1009.74
2022-10-26T12:03:29.329Z,1009.73
2022-10-26T12:04:29.363Z,1009.72
2022-10-26T12:05:29.280Z,1009.75
2022-10-26T12:06:29.280Z,1009.79
2022-10-26T12:07:29.341Z,1009.71
2022-10-26T12:08:29.266Z,1009.79
2022-10-26T12:09:32.158Z,1009.76
2022-10-26T12:10:30.953Z,1009.74
2022-10-26T12:11:32.563Z,1009.83
2022-10-26T12:14:55.652Z,1009.86
2022-10-26T12:16:09.489Z,1009.85
2022-10-26T12:16:55.811Z,1009.91
2022-10-26T12:17:54.128Z,1009.93
2022-10-26T12:18:56.048Z,1009.95
2022-10-26T12:19:54.100Z,1009.92
2022-10-26T12:20:54.110Z,1009.97
2022-10-26T12:21:54.086Z,1009.98
2022-10-26T12:22:54.046Z,1010.02
2022-10-26T12:23:54.029Z,1010.05
2022-10-26T12:24:55.742Z,1010.07
2022-10-26T12:25:54.090Z,1010.01
2022-10-26T12:26:54.021Z,1010.04
2022-10-26T12:27:54.455Z,1010.08
2022-10-26T12:28:55.546Z,1010.11
2022-10-26T12:29:54.029Z,1010.08
2022-10-26T12:30:54.047Z,1010.11
2022-10-26T12:31:54.001Z,1010.16
2022-10-26T12:32:54.344Z,1010.19
2022-10-26T12:33:54.003Z,1010.15
2022-10-26T12:34:53.952Z,1010.19
2022-10-26T12:35:54.153Z,1010.23
2022-10-26T12:36:54.923Z,1010.24
2022-10-26T12:37:54.770Z,1010.28
2022-10-26T12:38:54.542Z,1010.22
2022-10-26T12:39:53.918Z,1010.26
2022-10-26T12:40:53.952Z,1010.26
2022-10-26T12:41:53.839Z,1010.24
2022-10-26T12:42:56.782Z,1010.27
2022-10-26T12:43:54.153Z,1010.19
2022-10-26T12:44:53.963Z,1010.24
2022-10-26T12:45:55.267Z,1010.22
2022-10-26T12:46:53.795Z,1010.26
2022-10-26T12:47:54.123Z,1010.18
2022-10-26T12:48:54.201Z,1010.21
2022-10-26T12:49:54.013Z,1010.28
2022-10-26T12:50:53.906Z,1010.26
2022-10-26T12:51:53.913Z,1010.31
2022-10-26T12:52:54.120Z,1010.35
2022-10-26T12:53:54.886Z,1010.31
2022-10-26T12:54:53.799Z,1010.31
2022-10-26T12:55:53.691Z,1010.30
2022-10-26T12:56:53.666Z,1010.43